createdAt,value
2022-11-05T00:00:47.685Z,0.00
2022-11-05T00:01:49.176Z,0.00
2022-11-05T00:02:47.656Z,0.00
2022-11-05T00:03:47.750Z,0.00
2022-11-05T00:04:47.625Z,0.00
2022-11-05T00:05:47.606Z,0.00
2022-11-05T00:06:47.604Z,0.00
2022-11-05T00:07:48.527Z,0.00
2022-11-05T00:08:47.578Z,0.00
2022-11-05T00:09:47.562Z,0.00
2022-11-05T00:10:47.546Z,0.00
2022-11-05T00:11:47.528Z,0.00
2022-11-05T00:12:47.524Z,0.00
2022-11-05T00:13:47.508Z,0.00
2022-11-05T00:14:47.497Z,0.00
2022-11-05T00:15:47.479Z,0.00
2022-11-05T00:16:47.458Z,0.00
2022-11-05T00:17:47.449Z,0.00
2022-11-05T00:18:47.438Z,0.00
2022-11-05T00:19:47.423Z,0.00
2022-11-05T00:20:47.420Z,0.00
2022-11-05T00:21:47.399Z,0.00
2022-11-05T00:22:47.389Z,0.00
2022-11-05T00:23:47.381Z,0.00
2022-11-05T00:24:47.359Z,0.00
2022-11-05T00:25:47.385Z,0.00
2022-11-05T00:26:47.331Z,0.00
2022-11-05T00:27:47.312Z,0.00
2022-11-05T00:28:47.310Z,0.00
2022-11-05T00:29:47.293Z,0.00
2022-11-05T00:30:47.282Z,0.00
2022-11-05T00:31:47.274Z,0.00
2022-11-05T00:32:47.251Z,0.00
2022-11-05T00:33:47.251Z,0.00
2022-11-05T05:20:59.974Z,0.00
2022-11-05T05:21:08.720Z,0.00
2022-11-05T05:22:04.730Z,0.00
2022-11-05T05:23:04.723Z,0.00
2022-11-05T05:24:04.702Z,0.00
2022-11-05T05:25:04.688Z,0.00
2022-11-05T05:26:04.663Z,0.00
2022-11-05T05:27:04.673Z,0.00
2022-11-05T05:28:04.654Z,0.00
2022-11-05T05:29:04.633Z,0.00
2022-11-05T05:30:04.616Z,0.00
2022-11-05T05:31:04.596Z,0.00
2022-11-05T05:32:04.584Z,0.00
2022-11-05T05:33:04.589Z,0.00
2022-11-05T05:34:04.565Z,0.00
2022-11-05T05:35:04.553Z,0.00
2022-11-05T05:36:09.966Z,0.00
2022-11-05T05:37:05.568Z,0.00
2022-11-05T05:38:04.547Z,0.00
2022-11-05T05:39:04.497Z,0.00
2022-11-05T05:40:04.519Z,0.00
2022-11-05T05:41:04.466Z,0.00
2022-11-05T05:42:04.447Z,0.00
2022-11-05T05:43:04.444Z,0.00
2022-11-05T05:44:04.437Z,0.00
2022-11-05T05:45:04.419Z,0.00
2022-11-05T05:46:04.402Z,0.00
2022-11-05T05:47:04.411Z,0.00
2022-11-05T05:48:04.385Z,0.00
2022-11-05T05:49:07.975Z,0.00
2022-11-05T05:50:05.338Z,0.00
2022-11-05T05:51:04.343Z,0.00
2022-11-05T05:52:04.324Z,0.00
2022-11-05T05:53:04.353Z,0.00
2022-11-05T05:54:04.291Z,0.00
2022-11-05T05:55:04.275Z,0.00
2022-11-05T05:56:04.260Z,0.00
2022-11-05T05:57:04.260Z,0.00
2022-11-05T05:58:04.246Z,0.00
2022-11-05T05:59:04.225Z,0.00
2022-11-05T06:00:04.211Z,0.00
2022-11-05T06:01:04.190Z,0.00
2022-11-05T06:02:04.272Z,0.00
2022-11-05T06:03:04.493Z,0.00
2022-11-05T06:04:04.162Z,0.00
2022-11-05T06:05:04.142Z,0.00
2022-11-05T06:06:04.145Z,5.62
2022-11-05T06:07:04.123Z,5.62
2022-11-05T06:08:04.115Z,5.62
2022-11-05T06:09:04.092Z,5.62
2022-11-05T06:10:04.072Z,5.62
2022-11-05T06:11:04.132Z,5.62
2022-11-05T06:12:04.081Z,5.62
2022-11-05T06:13:04.062Z,5.62
2022-11-05T06:14:04.025Z,11.25
2022-11-05T06:15:04.003Z,11.25
2022-11-05T06:16:03.995Z,11.25
2022-11-05T06:17:03.985Z,11.25
2022-11-05T06:18:03.975Z,11.25
2022-11-05T06:19:03.955Z,11.25
2022-11-05T06:20:03.945Z,11.25
2022-11-05T06:21:03.945Z,16.88
2022-11-05T06:22:03.936Z,16.88
2022-11-05T06:23:03.926Z,16.88
2022-11-05T06:24:03.929Z,16.88
2022-11-05T06:25:03.878Z,16.88
2022-11-05T06:26:04.089Z,16.88
2022-11-05T06:27:03.857Z,22.50
2022-11-05T06:28:03.826Z,22.50
2022-11-05T06:29:03.827Z,22.50
2022-11-05T06:30:03.798Z,22.50
2022-11-05T06:31:03.796Z,22.50
2022-11-05T06:32:03.774Z,28.12
2022-11-05T06:33:03.769Z,28.12
2022-11-05T06:34:03.743Z,28.12
2022-11-05T06:35:03.728Z,28.12
2022-11-05T06:36:03.721Z,33.75
2022-11-05T06:37:03.717Z,33.75
2022-11-05T06:38:03.697Z,33.75
2022-11-05T06:39:04.635Z,33.75
2022-11-05T06:40:03.659Z,39.38
2022-11-05T06:41:09.888Z,39.38
2022-11-05T06:42:17.955Z,39.38
2022-11-05T06:43:04.648Z,39.38
2022-11-05T06:44:03.646Z,39.38
2022-11-05T06:45:03.596Z,45.00
2022-11-05T06:46:03.595Z,45.00
2022-11-05T06:47:03.662Z,45.00
2022-11-05T06:48:03.560Z,45.00
2022-11-05T06:49:03.541Z,45.00
2022-11-05T06:50:03.540Z,50.62
2022-11-05T06:51:03.522Z,50.62
2022-11-05T06:52:03.510Z,50.62
2022-11-05T06:53:03.513Z,50.62
2022-11-05T06:54:03.477Z,50.62
2022-11-05T06:55:03.472Z,56.25
2022-11-05T06:56:03.441Z,61.88
2022-11-05T06:57:03.468Z,56.25
2022-11-05T06:58:03.424Z,61.88
2022-11-05T06:59:03.422Z,61.88
2022-11-05T07:00:07.663Z,61.88
2022-11-05T07:01:03.471Z,56.25
2022-11-05T07:02:03.424Z,50.62
2022-11-05T07:03:03.362Z,50.62
2022-11-05T07:04:03.334Z,50.62
2022-11-05T07:05:03.324Z,50.62
2022-11-05T07:06:03.314Z,50.62
2022-11-05T07:07:03.323Z,50.62
2022-11-05T07:08:04.261Z,50.62
2022-11-05T07:09:04.278Z,56.25
2022-11-05T07:10:03.295Z,56.25
2022-11-05T07:11:03.251Z,56.25
2022-11-05T07:12:03.235Z,56.25
2022-11-05T07:13:07.799Z,56.25
2022-11-05T07:14:04.216Z,56.25
2022-11-05T07:15:03.202Z,56.25
2022-11-05T07:16:03.191Z,61.88
2022-11-05T07:17:03.175Z,61.88
2022-11-05T07:18:03.156Z,61.88
2022-11-05T07:19:03.136Z,67.50
2022-11-05T07:20:03.118Z,67.50
2022-11-05T07:21:03.117Z,73.12
2022-11-05T07:22:03.098Z,78.75
2022-11-05T07:23:03.093Z,84.38
2022-11-05T07:24:03.068Z,84.38
2022-11-05T07:25:03.058Z,84.38
2022-11-05T07:26:03.039Z,84.38
2022-11-05T07:27:03.049Z,84.38
2022-11-05T07:28:03.972Z,90.00
2022-11-05T07:29:03.008Z,90.00
2022-11-05T07:30:02.990Z,95.62
2022-11-05T07:31:02.990Z,95.62
2022-11-05T07:32:02.972Z,101.25
2022-11-05T07:33:02.961Z,106.88
2022-11-05T07:34:02.940Z,106.88
2022-11-05T07:35:02.945Z,106.88
2022-11-05T07:36:02.915Z,106.88
2022-11-05T07:37:02.921Z,106.88
2022-11-05T07:38:02.881Z,106.88
2022-11-05T07:39:02.880Z,106.88
2022-11-05T07:40:02.856Z,106.88
2022-11-05T07:41:02.852Z,106.88
2022-11-05T07:42:02.832Z,106.88
2022-11-05T07:43:02.813Z,112.50
2022-11-05T07:44:02.793Z,112.50
2022-11-05T07:45:02.796Z,112.50
2022-11-05T07:46:02.773Z,112.50
2022-11-05T07:47:02.784Z,118.12
2022-11-05T07:48:02.753Z,112.50
2022-11-05T07:49:02.736Z,118.12
2022-11-05T07:50:02.715Z,118.12
2022-11-05T07:51:02.717Z,129.38
2022-11-05T07:52:02.695Z,129.38
2022-11-05T07:53:02.698Z,129.38
2022-11-05T07:54:02.667Z,129.38
2022-11-05T07:55:02.656Z,129.38
2022-11-05T07:56:02.636Z,129.38
2022-11-05T07:57:02.647Z,135.00
2022-11-05T07:58:02.615Z,135.00
2022-11-05T07:59:02.627Z,146.25
2022-11-05T08:00:02.628Z,146.25
2022-11-05T08:01:02.745Z,151.88
2022-11-05T08:02:02.718Z,151.88
2022-11-05T08:03:07.720Z,146.25
2022-11-05T08:04:03.538Z,146.25
2022-11-05T08:05:02.514Z,140.62
2022-11-05T08:06:02.515Z,140.62
2022-11-05T08:07:02.513Z,140.62
2022-11-05T08:08:02.473Z,135.00
2022-11-05T08:09:02.481Z,135.00
2022-11-05T08:10:02.459Z,135.00
2022-11-05T08:11:02.440Z,135.00
2022-11-05T08:12:03.395Z,129.38
2022-11-05T08:13:02.421Z,129.38
2022-11-05T08:14:02.407Z,129.38
2022-11-05T08:15:02.380Z,129.38
2022-11-05T08:16:05.043Z,129.38
2022-11-05T08:17:02.381Z,135.00
2022-11-05T08:18:02.348Z,146.25
2022-11-05T08:19:02.333Z,151.88
2022-11-05T08:20:02.322Z,163.12
2022-11-05T08:21:03.341Z,168.75
2022-11-05T08:22:03.233Z,180.00
2022-11-05T08:23:02.274Z,174.38
2022-11-05T08:24:02.262Z,180.00
2022-11-05T08:25:06.822Z,174.38
2022-11-05T08:26:03.215Z,174.38
2022-11-05T08:27:02.566Z,168.75
2022-11-05T08:28:02.208Z,163.12
2022-11-05T08:29:02.198Z,157.50
2022-11-05T08:30:02.355Z,157.50
2022-11-05T08:31:03.138Z,146.25
2022-11-05T08:32:03.113Z,140.62
2022-11-05T08:33:02.165Z,140.62
2022-11-05T08:34:02.743Z,146.25
2022-11-05T08:35:02.112Z,146.25
2022-11-05T08:36:02.111Z,151.88
2022-11-05T08:37:02.105Z,157.50
2022-11-05T08:38:03.005Z,157.50
2022-11-05T08:39:02.069Z,157.50
2022-11-05T08:40:02.047Z,151.88
2022-11-05T08:41:02.043Z,146.25
2022-11-05T08:42:02.024Z,140.62
2022-11-05T08:43:02.020Z,146.25
2022-11-05T08:44:02.016Z,157.50
2022-11-05T08:45:02.043Z,168.75
2022-11-05T08:46:02.009Z,185.62
2022-11-05T08:47:02.925Z,191.25
2022-11-05T08:48:01.950Z,191.25
2022-11-05T08:49:01.933Z,191.25
2022-11-05T08:50:02.863Z,191.25
2022-11-05T08:51:01.930Z,185.62
2022-11-05T08:52:01.900Z,174.38
2022-11-05T08:53:01.880Z,163.12
2022-11-05T08:54:01.883Z,163.12
2022-11-05T08:55:01.871Z,163.12
2022-11-05T08:56:02.805Z,163.12
2022-11-05T08:57:01.841Z,163.12
2022-11-05T08:58:01.810Z,168.75
2022-11-05T08:59:01.801Z,174.38
2022-11-05T09:00:02.741Z,168.75
2022-11-05T09:01:05.004Z,163.12
2022-11-05T09:02:01.861Z,168.75
2022-11-05T09:03:01.761Z,168.75
2022-11-05T09:04:01.738Z,168.75
2022-11-05T09:05:01.712Z,180.00
2022-11-05T09:06:01.727Z,180.00
2022-11-05T09:07:01.682Z,168.75
2022-11-05T09:08:02.629Z,174.38
2022-11-05T09:09:01.664Z,168.75
2022-11-05T09:10:01.645Z,163.12
2022-11-05T09:11:01.648Z,168.75
2022-11-05T09:12:17.922Z,168.75
2022-11-05T09:13:02.608Z,168.75
2022-11-05T09:14:01.595Z,174.38
2022-11-05T09:15:01.577Z,168.75
2022-11-05T09:16:01.597Z,163.12
2022-11-05T09:17:02.534Z,157.50
2022-11-05T09:18:01.557Z,157.50
2022-11-05T09:19:01.539Z,151.88
2022-11-05T09:20:01.690Z,146.25
2022-11-05T09:21:02.447Z,157.50
2022-11-05T09:22:01.495Z,157.50
2022-11-05T09:23:01.466Z,157.50
2022-11-05T09:24:01.465Z,157.50
2022-11-05T09:25:01.442Z,163.12
2022-11-05T09:26:01.451Z,157.50
2022-11-05T09:27:01.418Z,163.12
2022-11-05T09:28:01.406Z,163.12
2022-11-05T09:29:01.388Z,163.12
2022-11-05T09:30:01.379Z,163.12
2022-11-05T09:31:01.369Z,163.12
2022-11-05T09:32:01.350Z,157.50
2022-11-05T09:33:01.349Z,157.50
2022-11-05T09:34:01.352Z,163.12
2022-11-05T09:35:01.329Z,163.12
2022-11-05T09:36:01.307Z,163.12
2022-11-05T09:37:01.295Z,163.12
2022-11-05T09:38:01.560Z,163.12
2022-11-05T09:39:01.260Z,163.12
2022-11-05T09:40:01.261Z,163.12
2022-11-05T09:41:01.245Z,163.12
2022-11-05T09:42:01.231Z,163.12
2022-11-05T09:43:01.202Z,163.12
2022-11-05T09:44:01.228Z,163.12
2022-11-05T09:45:01.179Z,163.12
2022-11-05T09:46:01.195Z,163.12
2022-11-05T09:47:01.152Z,163.12
2022-11-05T09:48:01.149Z,163.12
2022-11-05T09:49:01.130Z,163.12
2022-11-05T09:50:01.109Z,163.12
2022-11-05T09:51:01.103Z,163.12
2022-11-05T09:52:01.094Z,157.50
2022-11-05T09:53:01.067Z,163.12
2022-11-05T09:54:01.060Z,180.00
2022-11-05T09:55:01.044Z,174.38
2022-11-05T09:56:01.045Z,168.75
2022-11-05T09:57:01.025Z,174.38
2022-11-05T09:58:01.016Z,174.38
2022-11-05T09:59:01.222Z,174.38
2022-11-05T10:00:00.995Z,151.88
2022-11-05T10:01:01.001Z,163.12
2022-11-05T10:02:01.058Z,146.25
2022-11-05T10:03:00.945Z,163.12
2022-11-05T10:04:00.926Z,163.12
2022-11-05T10:05:06.442Z,168.75
2022-11-05T10:06:01.909Z,174.38
2022-11-05T10:07:00.896Z,140.62
2022-11-05T10:08:00.880Z,157.50
2022-11-05T10:09:00.869Z,168.75
2022-11-05T10:10:00.849Z,157.50
2022-11-05T10:11:00.849Z,168.75
2022-11-05T10:12:00.818Z,168.75
2022-11-05T10:13:00.809Z,168.75
2022-11-05T10:14:00.800Z,168.75
2022-11-05T10:15:00.786Z,168.75
2022-11-05T10:16:00.791Z,163.12
2022-11-05T10:17:00.750Z,168.75
2022-11-05T10:18:00.731Z,168.75
2022-11-05T10:19:00.721Z,168.75
2022-11-05T10:20:00.719Z,168.75
2022-11-05T10:21:00.732Z,168.75
2022-11-05T10:22:06.608Z,168.75
2022-11-05T10:23:01.682Z,168.75
2022-11-05T10:24:00.663Z,168.75
2022-11-05T10:25:00.650Z,174.38
2022-11-05T10:26:00.669Z,174.38
2022-11-05T10:27:00.624Z,174.38
2022-11-05T10:28:00.600Z,174.38
2022-11-05T10:29:00.588Z,174.38
2022-11-05T10:30:00.624Z,174.38
2022-11-05T10:31:00.564Z,174.38
2022-11-05T10:32:00.544Z,174.38
2022-11-05T10:33:01.484Z,174.38
2022-11-05T10:34:00.523Z,180.00
2022-11-05T10:35:00.507Z,185.62
2022-11-05T10:36:00.507Z,185.62
2022-11-05T10:37:00.486Z,180.00
2022-11-05T10:38:00.466Z,185.62
2022-11-05T10:39:00.456Z,174.38
2022-11-05T10:40:00.458Z,191.25
2022-11-05T10:41:00.435Z,168.75
2022-11-05T10:42:00.417Z,202.50
2022-11-05T10:43:00.408Z,213.75
2022-11-05T10:44:01.347Z,225.00
2022-11-05T10:45:00.378Z,236.25
2022-11-05T10:46:00.368Z,247.50
2022-11-05T10:47:00.350Z,253.12
2022-11-05T10:48:00.339Z,247.50
2022-11-05T10:49:00.320Z,247.50
2022-11-05T10:50:00.328Z,258.75
2022-11-05T10:51:00.302Z,253.12
2022-11-05T10:52:00.280Z,241.88
2022-11-05T10:53:01.232Z,230.62
2022-11-05T10:54:02.192Z,219.38
2022-11-05T10:55:00.267Z,208.12
2022-11-05T10:56:00.229Z,196.88
2022-11-05T10:57:00.221Z,191.25
2022-11-05T10:58:00.204Z,191.25
2022-11-05T10:59:00.192Z,191.25
2022-11-05T11:00:00.481Z,191.25
2022-11-05T11:01:00.212Z,191.25
2022-11-05T11:02:00.239Z,146.25
2022-11-05T11:03:00.140Z,168.75
2022-11-05T11:04:00.124Z,196.88
2022-11-05T11:05:00.113Z,202.50
2022-11-05T11:06:00.095Z,168.75
2022-11-05T11:07:00.080Z,168.75
2022-11-05T11:08:00.087Z,213.75
2022-11-05T11:09:00.076Z,225.00
2022-11-05T11:10:00.045Z,225.00
2022-11-05T11:11:00.025Z,208.12
2022-11-05T11:12:00.053Z,219.38
2022-11-05T11:13:00.065Z,230.62
2022-11-05T11:13:59.986Z,230.62
2022-11-05T11:15:00.008Z,230.62
2022-11-05T11:15:59.991Z,230.62
2022-11-05T11:16:59.947Z,247.50
2022-11-05T11:17:59.996Z,258.75
2022-11-05T11:18:59.918Z,281.25
2022-11-05T11:19:59.925Z,292.50
2022-11-05T11:20:59.888Z,303.75
2022-11-05T11:21:59.896Z,315.00
2022-11-05T11:22:59.869Z,320.62
2022-11-05T11:23:59.869Z,337.50
2022-11-05T11:24:59.858Z,343.12
2022-11-05T11:25:59.833Z,303.75
2022-11-05T11:26:59.819Z,360.00
2022-11-05T11:27:59.810Z,360.00
2022-11-05T11:28:59.791Z,376.88
2022-11-05T11:29:59.796Z,382.50
2022-11-05T11:31:00.712Z,382.50
2022-11-05T11:31:59.781Z,393.75
2022-11-05T11:32:59.746Z,405.00
2022-11-05T11:33:59.732Z,416.25
2022-11-05T11:34:59.724Z,410.62
2022-11-05T11:35:59.703Z,393.75
2022-11-05T11:36:59.694Z,360.00
2022-11-05T11:37:59.676Z,388.12
2022-11-05T11:38:59.654Z,388.12
2022-11-05T11:39:59.925Z,376.88
2022-11-05T11:40:59.624Z,365.62
2022-11-05T11:41:59.622Z,365.62
2022-11-05T11:42:59.597Z,354.38
2022-11-05T11:43:59.603Z,326.25
2022-11-05T11:44:59.589Z,309.38
2022-11-05T11:46:05.408Z,281.25
2022-11-05T11:47:01.506Z,258.75
2022-11-05T11:47:59.548Z,241.88
2022-11-05T11:48:59.517Z,230.62
2022-11-05T11:49:59.530Z,225.00
2022-11-05T11:50:59.507Z,230.62
2022-11-05T11:51:59.500Z,230.62
2022-11-05T11:52:59.469Z,241.88
2022-11-05T11:53:59.466Z,258.75
2022-11-05T11:54:59.460Z,270.00
2022-11-05T11:55:59.437Z,281.25
2022-11-05T11:56:59.420Z,281.25
2022-11-05T11:57:59.431Z,270.00
2022-11-05T11:58:59.427Z,264.38
2022-11-05T12:00:14.668Z,247.50
2022-11-05T12:01:01.329Z,230.62
2022-11-05T12:01:59.437Z,230.62
2022-11-05T12:03:02.071Z,191.25
2022-11-05T12:03:59.340Z,230.62
2022-11-05T12:04:59.320Z,208.12
2022-11-05T12:05:59.323Z,208.12
2022-11-05T12:06:59.291Z,208.12
2022-11-05T12:07:59.275Z,213.75
2022-11-05T12:09:05.350Z,213.75
2022-11-05T12:10:00.262Z,247.50
2022-11-05T12:10:59.234Z,247.50
2022-11-05T12:11:59.249Z,247.50
2022-11-05T12:12:59.215Z,247.50
2022-11-05T12:13:59.211Z,253.12
2022-11-05T12:14:59.184Z,258.75
2022-11-05T12:15:59.173Z,264.38
2022-11-05T12:16:59.154Z,264.38
2022-11-05T12:17:59.146Z,264.38
2022-11-05T12:18:59.133Z,253.12
2022-11-05T12:19:59.117Z,258.75
2022-11-05T12:20:59.146Z,270.00
2022-11-05T12:21:59.095Z,270.00
2022-11-05T12:22:59.078Z,275.62
2022-11-05T12:23:59.071Z,275.62
2022-11-05T12:24:59.047Z,275.62
2022-11-05T12:25:59.036Z,264.38
2022-11-05T12:26:59.989Z,241.88
2022-11-05T12:27:59.009Z,208.12
2022-11-05T12:29:17.946Z,185.62
2022-11-05T12:29:59.981Z,168.75
2022-11-05T12:30:58.970Z,146.25
2022-11-05T12:31:58.966Z,135.00
2022-11-05T12:32:59.064Z,129.38
2022-11-05T12:33:59.071Z,123.75
2022-11-05T12:35:00.402Z,123.75
2022-11-05T12:35:58.913Z,129.38
2022-11-05T12:36:58.893Z,129.38
2022-11-05T12:37:58.880Z,129.38
2022-11-05T12:38:58.923Z,129.38
2022-11-05T12:39:58.862Z,129.38
2022-11-05T12:40:58.844Z,129.38
2022-11-05T12:41:58.829Z,135.00
2022-11-05T12:42:58.813Z,135.00
2022-11-05T12:43:58.815Z,135.00
2022-11-05T12:44:59.034Z,140.62
2022-11-05T12:45:58.794Z,163.12
2022-11-05T12:46:58.768Z,151.88
2022-11-05T12:47:58.748Z,151.88
2022-11-05T12:48:58.746Z,146.25
2022-11-05T12:49:58.716Z,146.25
2022-11-05T12:50:58.723Z,140.62
2022-11-05T12:51:58.685Z,140.62
2022-11-05T12:52:58.682Z,146.25
2022-11-05T12:53:58.668Z,146.25
2022-11-05T12:54:58.647Z,146.25
2022-11-05T12:55:58.646Z,146.25
2022-11-05T12:56:58.627Z,151.88
2022-11-05T12:57:58.618Z,151.88
2022-11-05T12:58:58.611Z,157.50
2022-11-05T12:59:58.578Z,157.50
2022-11-05T13:00:58.671Z,163.12
2022-11-05T13:01:58.650Z,174.38
2022-11-05T13:02:58.561Z,180.00
2022-11-05T13:03:58.548Z,191.25
2022-11-05T13:04:58.536Z,191.25
2022-11-05T13:06:04.532Z,196.88
2022-11-05T13:06:59.502Z,202.50
2022-11-05T13:07:58.481Z,196.88
2022-11-05T13:08:58.471Z,185.62
2022-11-05T13:09:58.449Z,180.00
2022-11-05T13:10:58.443Z,180.00
2022-11-05T13:11:58.432Z,174.38
2022-11-05T13:12:58.418Z,168.75
2022-11-05T13:13:58.410Z,168.75
2022-11-05T13:14:58.412Z,168.75
2022-11-05T13:15:58.363Z,168.75
2022-11-05T13:16:58.381Z,180.00
2022-11-05T13:17:58.342Z,180.00
2022-11-05T13:18:58.344Z,185.62
2022-11-05T13:19:59.273Z,163.12
2022-11-05T13:20:58.305Z,180.00
2022-11-05T13:21:58.293Z,174.38
2022-11-05T13:22:58.277Z,174.38
2022-11-05T13:23:58.265Z,163.12
2022-11-05T13:24:58.250Z,163.12
2022-11-05T13:25:58.240Z,157.50
2022-11-05T13:26:58.230Z,146.25
2022-11-05T13:27:58.216Z,151.88
2022-11-05T13:28:58.205Z,151.88
2022-11-05T13:29:58.189Z,151.88
2022-11-05T13:30:58.166Z,151.88
2022-11-05T13:31:58.159Z,151.88
2022-11-05T13:32:58.154Z,146.25
2022-11-05T13:33:58.161Z,146.25
2022-11-05T13:34:58.118Z,140.62
2022-11-05T13:35:58.110Z,140.62
2022-11-05T13:36:59.044Z,135.00
2022-11-05T13:37:58.089Z,135.00
2022-11-05T13:38:58.089Z,135.00
2022-11-05T13:39:58.059Z,129.38
2022-11-05T13:40:58.039Z,129.38
2022-11-05T13:41:58.033Z,129.38
2022-11-05T13:42:58.021Z,129.38
2022-11-05T13:43:58.010Z,123.75
2022-11-05T13:44:57.980Z,123.75
2022-11-05T13:46:02.811Z,123.75
2022-11-05T13:46:58.960Z,123.75
2022-11-05T13:47:57.950Z,118.12
2022-11-05T13:48:57.941Z,118.12
2022-11-05T13:49:57.933Z,118.12
2022-11-05T13:50:57.912Z,118.12
2022-11-05T13:51:57.895Z,118.12
2022-11-05T13:52:57.882Z,118.12
2022-11-05T13:53:57.877Z,112.50
2022-11-05T13:54:57.855Z,112.50
2022-11-05T13:55:57.833Z,112.50
2022-11-05T13:56:57.824Z,118.12
2022-11-05T13:57:57.807Z,112.50
2022-11-05T13:58:57.804Z,112.50
2022-11-05T13:59:57.794Z,112.50
2022-11-05T14:00:57.816Z,112.50
2022-11-05T14:01:57.805Z,112.50
2022-11-05T14:02:57.745Z,106.88
2022-11-05T14:03:57.738Z,106.88
2022-11-05T14:05:00.935Z,106.88
2022-11-05T14:05:57.717Z,106.88
2022-11-05T14:06:57.687Z,106.88
2022-11-05T14:07:57.677Z,106.88
2022-11-05T14:08:58.635Z,101.25
2022-11-05T14:09:57.647Z,101.25
2022-11-05T14:10:57.643Z,101.25
2022-11-05T14:11:57.635Z,101.25
2022-11-05T14:12:57.621Z,101.25
2022-11-05T14:13:57.598Z,101.25
2022-11-05T14:14:59.002Z,101.25
2022-11-05T14:15:57.570Z,95.62
2022-11-05T14:16:57.560Z,95.62
2022-11-05T14:17:57.544Z,95.62
2022-11-05T14:18:57.540Z,95.62
2022-11-05T14:19:57.511Z,95.62
2022-11-05T14:20:57.512Z,95.62
2022-11-05T14:21:57.514Z,90.00
2022-11-05T14:22:57.473Z,90.00
2022-11-05T14:23:57.469Z,90.00
2022-11-05T14:24:57.451Z,90.00
2022-11-05T14:25:57.469Z,90.00
2022-11-05T14:26:57.455Z,90.00
2022-11-05T14:27:57.404Z,90.00
2022-11-05T14:28:57.413Z,84.38
2022-11-05T14:29:57.388Z,84.38
2022-11-05T14:30:57.378Z,84.38
2022-11-05T14:32:12.555Z,84.38
2022-11-05T14:32:58.353Z,84.38
2022-11-05T14:33:57.335Z,84.38
2022-11-05T14:34:57.323Z,78.75
2022-11-05T14:35:57.305Z,78.75
2022-11-05T14:36:57.294Z,78.75
2022-11-05T14:37:57.272Z,78.75
2022-11-05T14:39:01.495Z,78.75
2022-11-05T14:39:58.245Z,78.75
2022-11-05T14:40:57.235Z,73.12
2022-11-05T14:41:57.226Z,73.12
2022-11-05T14:42:57.208Z,73.12
2022-11-05T14:43:57.196Z,73.12
2022-11-05T14:44:57.198Z,73.12
2022-11-05T14:45:57.167Z,67.50
2022-11-05T14:46:57.157Z,67.50
2022-11-05T14:47:57.145Z,67.50
2022-11-05T14:48:57.128Z,67.50
2022-11-05T14:49:57.109Z,67.50
2022-11-05T14:50:57.112Z,61.88
2022-11-05T14:51:57.104Z,61.88
2022-11-05T14:52:57.080Z,61.88
2022-11-05T14:53:57.079Z,61.88
2022-11-05T14:54:57.049Z,61.88
2022-11-05T14:55:57.031Z,56.25
2022-11-05T14:56:57.022Z,56.25
2022-11-05T14:57:57.014Z,56.25
2022-11-05T14:58:56.998Z,56.25
2022-11-05T14:59:56.988Z,56.25
2022-11-05T15:00:57.036Z,50.62
2022-11-05T15:01:57.948Z,50.62
2022-11-05T15:02:56.961Z,50.62
2022-11-05T15:03:56.970Z,50.62
2022-11-05T15:04:56.922Z,45.00
2022-11-05T15:05:56.902Z,45.00
2022-11-05T15:06:56.898Z,45.00
2022-11-05T15:07:56.912Z,45.00
2022-11-05T15:08:56.900Z,45.00
2022-11-05T15:09:56.852Z,39.38
2022-11-05T15:10:56.835Z,39.38
2022-11-05T15:11:56.814Z,39.38
2022-11-05T15:12:56.814Z,39.38
2022-11-05T15:13:56.835Z,33.75
2022-11-05T15:14:56.790Z,33.75
2022-11-05T15:15:56.760Z,33.75
2022-11-05T15:16:56.787Z,33.75
2022-11-05T15:17:56.774Z,28.12
2022-11-05T15:18:56.743Z,28.12
2022-11-05T15:19:56.707Z,28.12
2022-11-05T15:20:56.709Z,28.12
2022-11-05T15:21:56.698Z,22.50
2022-11-05T15:22:56.686Z,22.50
2022-11-05T15:23:56.668Z,22.50
2022-11-05T15:24:56.648Z,22.50
2022-11-05T15:25:56.638Z,22.50
2022-11-05T15:26:56.617Z,16.88
2022-11-05T15:27:56.618Z,16.88
2022-11-05T15:28:56.601Z,16.88
2022-11-05T15:29:56.579Z,16.88
2022-11-05T15:30:56.570Z,11.25
2022-11-05T15:31:56.560Z,11.25
2022-11-05T15:32:56.550Z,11.25
2022-11-05T15:33:56.519Z,11.25
2022-11-05T15:34:56.513Z,11.25
2022-11-05T15:35:56.516Z,5.62
2022-11-05T15:36:56.490Z,5.62
2022-11-05T15:38:01.695Z,5.62
2022-11-05T15:39:23.340Z,5.62
2022-11-05T15:39:57.452Z,5.62
2022-11-05T15:40:56.436Z,5.62
2022-11-05T15:41:56.422Z,5.62
2022-11-05T15:42:56.412Z,5.62
2022-11-05T15:43:56.392Z,0.00
2022-11-05T15:44:56.397Z,0.00
2022-11-05T15:45:56.373Z,0.00
2022-11-05T15:46:56.625Z,0.00
2022-11-05T15:47:56.344Z,0.00
2022-11-05T15:48:56.324Z,0.00
2022-11-05T15:49:56.313Z,0.00
2022-11-05T15:50:56.317Z,0.00
2022-11-05T15:51:56.315Z,0.00
2022-11-05T15:53:04.856Z,0.00
2022-11-05T15:54:57.262Z,0.00
2022-11-05T15:55:57.101Z,0.00
2022-11-05T15:56:56.234Z,0.00
2022-11-05T15:57:56.205Z,0.00
2022-11-05T15:58:56.196Z,0.00
2022-11-05T15:59:56.204Z,0.00
2022-11-05T16:00:56.166Z,0.00
2022-11-05T16:01:56.343Z,0.00
2022-11-05T16:02:56.136Z,0.00
2022-11-05T16:03:56.122Z,0.00
2022-11-05T16:04:56.116Z,0.00
2022-11-05T16:05:56.097Z,0.00
2022-11-05T16:06:56.093Z,0.00
2022-11-05T16:07:56.067Z,0.00
2022-11-05T16:08:56.057Z,0.00
2022-11-05T16:09:56.056Z,0.00
2022-11-05T16:10:56.277Z,0.00
2022-11-05T16:11:56.018Z,0.00
2022-11-05T16:12:56.017Z,0.00
2022-11-05T16:13:55.988Z,0.00
2022-11-05T16:14:55.978Z,0.00
2022-11-05T16:15:55.983Z,0.00
2022-11-05T16:16:55.952Z,0.00
2022-11-05T16:17:55.931Z,0.00
2022-11-05T16:18:55.920Z,0.00
2022-11-05T16:19:55.910Z,0.00
2022-11-05T16:20:56.860Z,0.00
2022-11-05T16:21:55.888Z,0.00
2022-11-05T16:22:55.862Z,0.00
2022-11-05T16:23:55.863Z,0.00
2022-11-05T16:24:55.841Z,0.00
2022-11-05T16:25:55.841Z,0.00
2022-11-05T16:27:03.600Z,0.00
2022-11-05T16:27:56.804Z,0.00
2022-11-05T16:28:55.793Z,0.00
2022-11-05T16:29:55.775Z,0.00
2022-11-05T16:30:55.772Z,0.00
2022-11-05T16:31:55.916Z,0.00
2022-11-05T16:33:01.827Z,0.00
2022-11-05T16:34:00.025Z,0.00
2022-11-05T17:46:09.599Z,0.00
2022-11-05T17:46:14.354Z,0.00
2022-11-05T17:47:14.359Z,0.00
2022-11-05T17:48:14.338Z,0.00
2022-11-05T17:49:14.331Z,0.00
2022-11-05T17:50:14.334Z,0.00
2022-11-05T17:51:14.301Z,0.00
2022-11-05T17:52:14.270Z,0.00
2022-11-05T17:53:14.612Z,0.00
2022-11-05T17:54:14.241Z,0.00
2022-11-05T17:55:15.468Z,0.00
2022-11-05T17:56:15.136Z,0.00
2022-11-05T17:57:14.235Z,0.00
2022-11-05T17:58:14.209Z,0.00
2022-11-05T17:59:14.192Z,0.00
2022-11-05T18:00:14.173Z,0.00
2022-11-05T18:01:14.209Z,0.00
2022-11-05T18:02:14.243Z,0.00
2022-11-05T18:03:14.465Z,0.00
2022-11-05T18:04:14.118Z,0.00
2022-11-05T18:05:14.105Z,0.00
2022-11-05T18:06:14.083Z,0.00
2022-11-05T18:07:14.097Z,0.00
2022-11-05T18:08:14.053Z,0.00
2022-11-05T18:09:14.046Z,0.00
2022-11-05T18:10:14.034Z,0.00
2022-11-05T18:11:14.025Z,0.00
2022-11-05T18:12:14.012Z,0.00
2022-11-05T18:13:14.363Z,0.00
2022-11-05T18:14:13.985Z,0.00
2022-11-05T18:15:13.975Z,0.00
2022-11-05T18:16:13.964Z,0.00
2022-11-05T18:17:13.939Z,0.00
2022-11-05T18:18:13.926Z,0.00
2022-11-05T18:19:13.921Z,0.00
2022-11-05T18:20:18.577Z,0.00
2022-11-05T18:21:14.875Z,0.00
2022-11-05T18:22:13.867Z,0.00
2022-11-05T18:23:14.133Z,0.00
2022-11-05T18:24:13.844Z,0.00
2022-11-05T18:25:13.838Z,0.00
2022-11-05T18:26:13.847Z,0.00
2022-11-05T18:27:13.799Z,0.00
2022-11-05T18:28:14.167Z,0.00
2022-11-05T18:29:13.787Z,0.00
2022-11-05T18:30:13.784Z,0.00
2022-11-05T18:31:17.867Z,0.00
2022-11-05T18:32:13.758Z,0.00
2022-11-05T18:33:14.090Z,0.00
2022-11-05T18:34:13.715Z,0.00
2022-11-05T18:35:13.699Z,0.00
2022-11-05T18:36:13.679Z,0.00
2022-11-05T18:37:13.682Z,0.00
2022-11-05T18:38:13.664Z,0.00
2022-11-05T18:39:13.639Z,0.00
2022-11-05T18:40:13.633Z,0.00
2022-11-05T18:41:13.619Z,0.00
2022-11-05T18:42:13.601Z,0.00
2022-11-05T18:43:13.878Z,0.00